Time;durP1;ratioP1;P1;durP2;ratioP2;P2;SDS_P1;SDS_P2;PMS_P1;PMS_P2;Temp;Humidity;BMP_temperature;BMP_pressure;BME280_temperature;BME280_humidity;BME280_pressure;Samples;Min_cycle;Max_cycle;Signal;HPM_P1;HPM_P2
2023/07/28 00:00:04;;;;;;;1.33;0.70;;;19.30;99.90;;;;;;5037486;28;20616;-79
2023/07/28 00:02:36;;;;;;;1.50;0.77;;;19.30;99.90;;;;;;5032863;28;20204;-79
2023/07/28 00:05:01;;;;;;;2.07;0.90;;;19.30;99.90;;;;;;5033055;28;21143;-79
2023/07/28 00:07:27;;;;;;;1.30;0.70;;;19.30;99.90;;;;;;5015024;28;20720;-79
2023/07/28 00:09:53;;;;;;;2.20;0.70;;;19.30;99.90;;;;;;5014947;28;20189;-79
2023/07/28 00:12:18;;;;;;;1.60;0.90;;;19.30;99.90;;;;;;5015351;28;20178;-80
2023/07/28 00:14:45;;;;;;;1.50;0.70;;;19.30;99.90;;;;;;5020374;28;20190;-78
2023/07/28 00:17:10;;;;;;;1.70;1.00;;;19.40;99.90;;;;;;5017684;28;20809;-80
2023/07/28 00:19:36;;;;;;;1.70;0.90;;;19.40;99.90;;;;;;5034022;28;20599;-79
2023/07/28 00:22:02;;;;;;;1.70;0.70;;;19.40;99.90;;;;;;5018100;28;20272;-79
2023/07/28 00:24:28;;;;;;;1.50;0.83;;;19.40;99.90;;;;;;5017855;28;20634;-79
2023/07/28 00:26:53;;;;;;;2.40;0.87;;;19.40;99.90;;;;;;5018989;28;20584;-79
2023/07/28 00:29:42;;;;;;;1.70;0.90;;;19.40;99.90;;;;;;5019222;28;20293;-79
2023/07/28 00:32:08;;;;;;;2.37;0.80;;;19.40;99.90;;;;;;5006296;28;20178;-79
2023/07/28 00:34:36;;;;;;;2.20;0.70;;;19.50;99.90;;;;;;5034674;28;20569;-79
2023/07/28 00:37:01;;;;;;;1.40;0.80;;;19.50;99.90;;;;;;5001083;28;20589;-79
2023/07/28 00:39:27;;;;;;;1.47;0.70;;;19.50;99.90;;;;;;5034536;28;20221;-79
2023/07/28 00:41:53;;;;;;;1.70;0.80;;;19.50;99.90;;;;;;5016600;28;20182;-83
2023/07/28 00:44:19;;;;;;;1.80;0.70;;;19.50;99.90;;;;;;5012985;28;20178;-83
2023/07/28 00:46:45;;;;;;;1.40;0.60;;;19.50;99.90;;;;;;5035482;28;20602;-82
2023/07/28 00:49:11;;;;;;;1.40;0.63;;;19.60;99.90;;;;;;5031312;28;20261;-83
2023/07/28 00:51:38;;;;;;;2.23;0.80;;;19.60;99.90;;;;;;5012607;28;20592;-80
2023/07/28 00:54:06;;;;;;;1.57;0.73;;;19.60;99.90;;;;;;5016009;28;20178;-80
2023/07/28 00:56:32;;;;;;;1.70;0.83;;;19.60;99.90;;;;;;5015802;28;20607;-80
2023/07/28 00:59:00;;;;;;;1.77;0.60;;;19.60;99.90;;;;;;5015105;28;20678;-80
2023/07/28 01:01:27;;;;;;;1.60;0.80;;;19.60;99.90;;;;;;5016380;28;20627;-79
2023/07/28 01:03:53;;;;;;;1.63;1.03;;;19.60;99.90;;;;;;5015410;28;20595;-80
2023/07/28 01:06:30;;;;;;;1.30;0.60;;;19.60;99.90;;;;;;5015639;28;20232;-80
2023/07/28 01:09:05;;;;;;;1.50;0.80;;;19.60;99.90;;;;;;5034937;28;20616;-80
2023/07/28 01:11:31;;;;;;;1.30;0.70;;;19.60;99.90;;;;;;5014182;28;20595;-80
2023/07/28 01:13:57;;;;;;;1.90;0.80;;;19.60;99.90;;;;;;5013695;28;20607;-80
2023/07/28 01:17:07;;;;;;;2.20;0.80;;;19.60;99.90;;;;;;5030485;28;20585;-79
2023/07/28 01:19:33;;;;;;;1.40;0.60;;;19.60;99.90;;;;;;4988623;28;20208;-79
2023/07/28 01:22:37;;;;;;;1.87;0.60;;;19.70;99.90;;;;;;5013168;28;21164;-82
2023/07/28 01:25:29;;;;;;;1.40;0.60;;;19.60;99.90;;;;;;4981814;28;20259;-82
2023/07/28 01:27:56;;;;;;;1.80;0.50;;;19.60;99.90;;;;;;5012347;28;20666;-82
2023/07/28 01:30:25;;;;;;;1.20;0.60;;;19.60;99.90;;;;;;5012721;28;20604;-81
2023/07/28 01:36:31;;;;;;;1.33;0.50;;;19.70;99.90;;;;;;5013520;28;20932;-82
2023/07/28 01:38:57;;;;;;;2.50;0.60;;;19.70;99.90;;;;;;5011618;28;20580;-82
2023/07/28 01:41:22;;;;;;;1.27;0.50;;;19.70;99.90;;;;;;5012177;28;20177;-82
2023/07/28 01:43:48;;;;;;;1.70;0.60;;;19.70;99.90;;;;;;5012646;28;20217;-82
2023/07/28 01:46:14;;;;;;;2.50;0.53;;;19.70;99.90;;;;;;4981402;28;20191;-82
2023/07/28 01:48:40;;;;;;;1.13;0.40;;;19.70;99.90;;;;;;4973940;28;1140778;-82
2023/07/28 01:51:05;;;;;;;1.20;0.50;;;19.70;99.90;;;;;;4980752;28;20177;-83
2023/07/28 01:53:31;;;;;;;1.20;0.50;;;19.70;99.90;;;;;;5019662;28;20245;-83
2023/07/28 01:55:57;;;;;;;1.30;0.50;;;19.70;99.90;;;;;;5013206;28;20594;-83
2023/07/28 01:58:23;;;;;;;1.20;0.50;;;19.70;99.90;;;;;;5012309;28;20178;-82
2023/07/28 02:00:48;;;;;;;1.93;0.60;;;19.70;99.90;;;;;;4997006;28;20251;-82
2023/07/28 02:03:14;;;;;;;1.53;0.50;;;19.70;99.90;;;;;;4979857;28;20169;-82
2023/07/28 02:05:40;;;;;;;1.33;0.53;;;19.70;99.90;;;;;;5012761;28;20173;-82
2023/07/28 02:08:05;;;;;;;1.30;0.60;;;19.70;99.90;;;;;;5012440;28;20232;-82
2023/07/28 02:10:31;;;;;;;1.17;0.50;;;19.70;99.90;;;;;;5012886;28;20881;-80
2023/07/28 02:12:57;;;;;;;1.30;0.40;;;19.70;99.90;;;;;;5013065;28;20201;-79
2023/07/28 02:15:23;;;;;;;1.30;0.50;;;19.70;99.90;;;;;;5012734;28;20711;-79
2023/07/28 02:17:49;;;;;;;1.97;0.60;;;19.70;99.90;;;;;;5013519;28;20627;-79
2023/07/28 02:20:15;;;;;;;1.10;0.50;;;19.70;99.90;;;;;;5012119;28;20198;-79
2023/07/28 02:22:42;;;;;;;1.20;0.50;;;19.70;99.90;;;;;;4997385;28;20573;-78
2023/07/28 02:25:08;;;;;;;1.40;0.50;;;19.70;99.90;;;;;;5012521;28;20585;-79
2023/07/28 02:27:34;;;;;;;1.37;0.50;;;19.70;99.90;;;;;;5030497;28;20584;-79
2023/07/28 02:30:00;;;;;;;1.30;0.50;;;19.70;99.90;;;;;;5013808;28;20623;-79
2023/07/28 02:32:28;;;;;;;2.03;0.60;;;19.70;99.90;;;;;;5012421;28;20177;-79
2023/07/28 02:34:54;;;;;;;1.87;0.50;;;19.70;99.90;;;;;;5030155;28;20568;-79
2023/07/28 02:37:20;;;;;;;1.30;0.50;;;19.70;99.90;;;;;;5012465;28;21171;-79
2023/07/28 02:39:46;;;;;;;1.53;0.50;;;19.70;99.90;;;;;;5012211;28;20715;-78
2023/07/28 02:42:12;;;;;;;3.17;0.50;;;19.70;99.90;;;;;;4979525;28;20684;-79
2023/07/28 02:44:39;;;;;;;1.20;0.50;;;19.70;99.90;;;;;;5012599;28;20182;-79
2023/07/28 02:47:05;;;;;;;1.63;0.50;;;19.70;99.90;;;;;;4995512;28;20661;-79
2023/07/28 02:49:31;;;;;;;1.10;0.40;;;19.70;99.90;;;;;;5011297;28;20643;-81
2023/07/28 02:51:56;;;;;;;5.13;0.50;;;19.70;99.90;;;;;;5011519;28;21236;-79
2023/07/28 02:54:24;;;;;;;1.40;0.50;;;19.60;99.90;;;;;;4995916;28;20903;-79
2023/07/28 02:56:51;;;;;;;4.70;0.50;;;19.70;99.90;;;;;;5012284;28;20166;-79
2023/07/28 02:59:18;;;;;;;1.50;0.60;;;19.70;99.90;;;;;;5012586;28;20723;-79
2023/07/28 03:01:44;;;;;;;2.23;0.50;;;19.70;99.90;;;;;;5011984;28;20576;-78
2023/07/28 03:04:10;;;;;;;1.87;0.57;;;19.70;99.90;;;;;;5012893;28;20626;-79
2023/07/28 03:06:58;;;;;;;1.30;0.60;;;19.70;99.90;;;;;;5029085;28;20577;-79
2023/07/28 03:09:25;;;;;;;1.57;0.60;;;19.70;99.90;;;;;;5015704;28;21215;-79
2023/07/28 03:11:59;;;;;;;1.20;0.53;;;19.70;99.90;;;;;;5015865;28;20626;-79
2023/07/28 03:14:25;;;;;;;1.30;0.60;;;19.70;99.90;;;;;;5017131;28;20587;-80
2023/07/28 03:16:52;;;;;;;1.40;0.67;;;19.70;99.90;;;;;;5016967;28;20588;-79
2023/07/28 03:19:18;;;;;;;1.40;0.80;;;19.70;99.90;;;;;;5000173;28;20256;-79
2023/07/28 03:21:43;;;;;;;1.50;0.70;;;19.70;99.90;;;;;;5001271;28;21164;-79
2023/07/28 03:24:09;;;;;;;1.40;0.60;;;19.70;99.90;;;;;;5016210;28;20170;-80
2023/07/28 03:26:35;;;;;;;1.30;0.73;;;19.70;99.90;;;;;;5015967;28;20515;-80
2023/07/28 03:29:01;;;;;;;1.20;0.60;;;19.80;99.90;;;;;;4998006;28;20225;-80
2023/07/28 03:31:28;;;;;;;1.80;0.67;;;19.70;99.90;;;;;;5015254;28;20679;-80
2023/07/28 03:33:54;;;;;;;2.80;0.60;;;19.80;99.90;;;;;;4982820;28;20626;-80
2023/07/28 03:36:20;;;;;;;1.27;0.70;;;19.70;99.90;;;;;;5015347;28;20576;-80
2023/07/28 03:38:46;;;;;;;2.10;0.70;;;19.70;99.90;;;;;;5014620;28;20596;-80
2023/07/28 03:41:13;;;;;;;1.50;0.60;;;19.70;99.90;;;;;;5014026;28;20182;-80
2023/07/28 03:43:41;;;;;;;1.70;0.50;;;19.70;99.90;;;;;;5006642;28;20691;-81
2023/07/28 03:46:06;;;;;;;1.57;0.70;;;19.80;99.90;;;;;;5015394;28;20711;-82
2023/07/28 03:48:32;;;;;;;1.40;0.57;;;19.70;99.90;;;;;;5014301;28;20715;-82
2023/07/28 03:50:58;;;;;;;1.40;0.90;;;19.80;99.90;;;;;;5032844;28;20255;-82
2023/07/28 03:53:24;;;;;;;1.57;0.70;;;19.80;99.90;;;;;;5032580;28;20576;-82
2023/07/28 03:55:49;;;;;;;1.47;0.70;;;19.70;99.90;;;;;;5014386;28;20172;-82
2023/07/28 03:58:15;;;;;;;2.00;0.77;;;19.80;99.90;;;;;;5014741;28;20411;-81
2023/07/28 04:00:41;;;;;;;1.63;0.70;;;19.70;99.90;;;;;;5032337;28;20931;-81
2023/07/28 04:03:07;;;;;;;1.33;0.70;;;19.70;99.90;;;;;;5014492;28;20174;-80
2023/07/28 04:05:32;;;;;;;2.60;0.73;;;19.70;99.90;;;;;;5014627;28;20555;-81
2023/07/28 04:07:58;;;;;;;2.53;0.80;;;19.70;99.90;;;;;;5014627;28;20316;-81
2023/07/28 04:10:24;;;;;;;1.77;0.70;;;19.80;99.90;;;;;;5014500;28;20892;-81
2023/07/28 04:12:49;;;;;;;1.40;0.60;;;19.80;99.90;;;;;;5032239;28;20166;-81
2023/07/28 04:15:15;;;;;;;1.70;0.80;;;19.80;99.90;;;;;;4982034;28;20541;-80
2023/07/28 04:17:41;;;;;;;3.67;0.80;;;19.80;99.90;;;;;;5032533;28;20193;-81
2023/07/28 04:20:07;;;;;;;1.50;0.60;;;19.80;99.90;;;;;;5030287;28;20194;-80
2023/07/28 04:22:33;;;;;;;1.50;0.73;;;19.80;99.90;;;;;;5033347;28;20692;-81
2023/07/28 04:24:58;;;;;;;1.30;0.70;;;19.80;99.90;;;;;;5015363;28;20650;-81
2023/07/28 04:27:24;;;;;;;1.20;0.67;;;19.80;99.90;;;;;;5015038;28;20170;-81
2023/07/28 04:29:59;;;;;;;1.60;0.70;;;19.80;99.90;;;;;;5014798;28;20201;-80
2023/07/28 04:32:25;;;;;;;2.27;0.60;;;19.80;99.90;;;;;;5015167;28;21127;-81
2023/07/28 04:34:53;;;;;;;1.20;0.60;;;19.80;99.90;;;;;;4983194;28;20176;-82
2023/07/28 04:37:45;;;;;;;1.50;0.70;;;19.90;99.90;;;;;;5011277;28;20661;-81
2023/07/28 04:40:15;;;;;;;1.73;0.60;;;19.90;99.90;;;;;;5014855;28;20635;-81
2023/07/28 04:42:40;;;;;;;4.00;0.70;;;19.90;99.90;;;;;;5014321;28;20596;-82
2023/07/28 04:45:07;;;;;;;1.20;0.53;;;19.90;99.90;;;;;;5014998;28;20223;-79
2023/07/28 04:47:46;;;;;;;2.30;0.70;;;19.90;99.90;;;;;;5027170;28;20660;-81
2023/07/28 04:50:23;;;;;;;1.87;0.60;;;19.90;99.90;;;;;;5027036;28;21051;-80
2023/07/28 04:53:37;;;;;;;2.10;0.73;;;19.90;99.90;;;;;;5022189;28;20588;-82
2023/07/28 04:56:49;;;;;;;1.90;0.80;;;19.90;99.90;;;;;;5028201;28;20744;-81
2023/07/28 04:59:42;;;;;;;1.67;0.60;;;19.90;99.90;;;;;;4933532;28;20631;-81
2023/07/28 05:02:52;;;;;;;1.93;0.80;;;20.00;99.90;;;;;;5009314;28;20584;-82
2023/07/28 05:05:23;;;;;;;1.67;0.60;;;20.00;99.90;;;;;;5004324;28;20580;-81
2023/07/28 05:08:44;;;;;;;2.17;0.70;;;20.10;99.90;;;;;;5014355;28;20632;-80
2023/07/28 05:11:22;;;;;;;2.60;0.60;;;20.10;99.90;;;;;;5012084;28;20631;-79
2023/07/28 05:13:47;;;;;;;1.60;0.67;;;20.10;99.90;;;;;;5016258;28;20567;-80
2023/07/28 05:16:13;;;;;;;1.47;0.70;;;20.10;99.90;;;;;;5000602;28;20650;-82
2023/07/28 05:19:08;;;;;;;2.10;0.70;;;20.20;99.90;;;;;;5029198;28;20193;-82
2023/07/28 05:22:02;;;;;;;2.27;0.60;;;20.20;99.90;;;;;;5030660;28;21171;-82
2023/07/28 05:24:44;;;;;;;1.30;0.60;;;20.20;99.90;;;;;;5013251;28;20599;-82
2023/07/28 05:27:11;;;;;;;1.70;0.70;;;20.20;99.90;;;;;;5013700;28;20584;-81
2023/07/28 05:29:37;;;;;;;1.40;0.60;;;20.20;99.90;;;;;;5013466;28;20648;-82
2023/07/28 05:32:06;;;;;;;1.30;0.60;;;20.20;99.90;;;;;;5012719;28;20630;-81
2023/07/28 05:34:42;;;;;;;1.20;0.60;;;20.20;99.90;;;;;;4998014;28;20577;-81
2023/07/28 05:37:08;;;;;;;4.03;0.83;;;20.30;99.90;;;;;;5013513;28;21111;-80
2023/07/28 05:39:34;;;;;;;1.70;0.63;;;20.30;99.90;;;;;;5030565;28;20607;-80
2023/07/28 05:42:00;;;;;;;1.20;0.50;;;20.30;99.90;;;;;;5013004;28;20178;-81
2023/07/28 05:44:26;;;;;;;1.50;0.50;;;20.30;99.90;;;;;;5012907;28;20220;-80
2023/07/28 05:46:52;;;;;;;2.13;0.53;;;20.40;99.90;;;;;;5009399;28;20633;-80
2023/07/28 05:49:18;;;;;;;1.20;0.50;;;20.40;99.90;;;;;;5007717;28;20209;-80
2023/07/28 05:51:43;;;;;;;1.50;0.60;;;20.50;99.90;;;;;;5012638;28;20588;-81
2023/07/28 05:54:14;;;;;;;1.30;0.60;;;20.50;99.90;;;;;;4980945;28;21134;-81
2023/07/28 05:56:41;;;;;;;1.33;0.50;;;20.50;99.90;;;;;;5012611;28;20606;-81
2023/07/28 05:59:08;;;;;;;2.07;0.67;;;20.50;99.90;;;;;;5012905;28;20658;-80
2023/07/28 06:01:34;;;;;;;2.13;0.70;;;20.60;99.90;;;;;;5030040;28;20592;-80
2023/07/28 06:04:29;;;;;;;1.60;0.60;;;20.60;99.90;;;;;;5008930;28;20719;-81
2023/07/28 06:06:57;;;;;;;2.00;0.60;;;20.60;99.90;;;;;;5013053;28;20675;-81
2023/07/28 06:09:23;;;;;;;1.20;0.53;;;20.70;99.90;;;;;;5012363;28;20782;-82
2023/07/28 06:11:49;;;;;;;1.20;0.57;;;20.70;99.90;;;;;;5012329;28;20177;-81
2023/07/28 06:14:16;;;;;;;1.97;0.57;;;20.70;99.90;;;;;;5013065;28;20607;-80
2023/07/28 06:16:42;;;;;;;2.03;0.50;;;20.80;99.90;;;;;;4979971;28;20590;-81
2023/07/28 06:19:08;;;;;;;1.37;0.60;;;20.80;99.90;;;;;;4979211;28;20688;-81
2023/07/28 06:21:35;;;;;;;1.30;0.60;;;20.80;99.90;;;;;;4987526;28;20173;-82
2023/07/28 06:24:01;;;;;;;1.17;0.50;;;20.90;99.90;;;;;;5012725;28;20937;-82
2023/07/28 06:26:26;;;;;;;1.23;0.50;;;20.90;99.90;;;;;;5012212;28;20174;-81
2023/07/28 06:28:52;;;;;;;1.23;0.50;;;20.90;99.90;;;;;;5012106;28;20873;-81
2023/07/28 06:31:18;;;;;;;1.50;0.60;;;20.90;99.90;;;;;;5029851;28;20650;-82
2023/07/28 06:33:44;;;;;;;1.20;0.53;;;21.00;99.90;;;;;;5012289;28;20173;-80
2023/07/28 06:36:10;;;;;;;1.50;0.70;;;21.00;99.90;;;;;;4996200;28;20855;-81
2023/07/28 06:38:35;;;;;;;2.40;0.70;;;21.00;99.90;;;;;;5011853;28;20174;-81
2023/07/28 06:41:01;;;;;;;1.80;1.10;;;21.00;99.90;;;;;;5012373;28;20197;-81
2023/07/28 06:43:27;;;;;;;1.73;0.80;;;21.10;99.90;;;;;;5013894;28;20177;-81
2023/07/28 06:45:54;;;;;;;2.47;0.60;;;21.10;99.90;;;;;;5016339;28;20576;-81
2023/07/28 06:48:20;;;;;;;1.70;0.60;;;21.10;99.90;;;;;;5015572;28;20750;-81
2023/07/28 06:50:45;;;;;;;1.20;0.60;;;21.10;99.90;;;;;;5016040;28;20731;-81
2023/07/28 06:53:11;;;;;;;4.50;0.67;;;21.20;99.90;;;;;;5033075;28;20173;-81
2023/07/28 06:55:39;;;;;;;1.57;0.93;;;21.20;99.90;;;;;;4983631;28;20264;-81
2023/07/28 06:58:09;;;;;;;1.50;0.70;;;21.20;99.90;;;;;;5015420;28;20572;-81
2023/07/28 07:00:35;;;;;;;3.00;0.80;;;21.30;99.90;;;;;;5033627;28;20601;-81
2023/07/28 07:03:01;;;;;;;2.03;0.93;;;21.30;99.90;;;;;;5015589;28;20599;-81
2023/07/28 07:05:27;;;;;;;2.20;0.70;;;21.30;99.90;;;;;;5033302;28;20580;-82
2023/07/28 07:07:54;;;;;;;1.50;0.90;;;21.30;99.90;;;;;;5015991;28;20757;-82
2023/07/28 07:10:20;;;;;;;1.60;0.70;;;21.30;99.90;;;;;;5032924;28;20695;-82
2023/07/28 07:12:52;;;;;;;1.70;0.80;;;21.30;99.90;;;;;;5033527;28;20594;-82
2023/07/28 07:15:18;;;;;;;1.93;0.80;;;21.40;99.90;;;;;;5015413;28;20671;-82
2023/07/28 07:17:43;;;;;;;1.93;0.80;;;21.40;99.90;;;;;;5015713;28;20185;-81
2023/07/28 07:20:10;;;;;;;1.50;0.80;;;21.40;99.90;;;;;;5015118;28;20259;-81
2023/07/28 07:22:36;;;;;;;1.70;0.80;;;21.40;99.90;;;;;;5015736;28;20176;-81
2023/07/28 07:25:03;;;;;;;2.30;1.07;;;21.50;99.90;;;;;;5033109;28;20584;-80
2023/07/28 07:27:31;;;;;;;1.80;1.10;;;21.50;99.90;;;;;;5015826;28;20592;-81
2023/07/28 07:29:57;;;;;;;1.60;0.90;;;21.50;99.90;;;;;;5014741;28;20670;-82
2023/07/28 07:32:23;;;;;;;2.67;1.27;;;21.50;99.90;;;;;;5033148;28;20671;-81
2023/07/28 07:34:53;;;;;;;2.17;0.80;;;21.50;99.90;;;;;;5015333;28;20592;-81
2023/07/28 07:37:19;;;;;;;3.77;1.00;;;21.50;99.90;;;;;;5015711;28;20598;-82
2023/07/28 07:39:44;;;;;;;2.13;1.20;;;21.50;99.90;;;;;;5015152;28;20604;-82
2023/07/28 07:42:14;;;;;;;1.63;1.20;;;21.50;99.90;;;;;;5032810;28;21103;-81
2023/07/28 07:44:40;;;;;;;1.70;0.90;;;21.60;99.90;;;;;;5015421;28;20588;-81
2023/07/28 07:47:14;;;;;;;3.50;1.13;;;21.60;99.90;;;;;;5015680;28;20630;-81
2023/07/28 07:49:40;;;;;;;2.37;1.03;;;21.60;99.90;;;;;;4982590;28;20639;-81
2023/07/28 07:52:09;;;;;;;2.33;1.33;;;21.70;99.90;;;;;;4982271;28;20572;-81
2023/07/28 07:54:34;;;;;;;1.80;1.20;;;21.70;99.90;;;;;;5033166;28;20576;-81
2023/07/28 07:57:00;;;;;;;2.00;1.30;;;21.70;99.90;;;;;;5032859;28;20576;-81
2023/07/28 07:59:30;;;;;;;2.40;1.00;;;21.80;99.90;;;;;;5014791;28;20209;-80
2023/07/28 08:01:56;;;;;;;2.23;1.30;;;21.80;99.90;;;;;;5015759;28;20568;-82
2023/07/28 08:04:22;;;;;;;2.43;0.90;;;21.80;99.90;;;;;;5019133;28;20606;-81
2023/07/28 08:06:48;;;;;;;1.60;0.97;;;21.90;99.90;;;;;;5035422;28;20644;-80
2023/07/28 08:09:14;;;;;;;1.60;1.10;;;22.00;99.90;;;;;;5001742;28;20213;-81
2023/07/28 08:11:40;;;;;;;3.20;1.10;;;22.10;99.90;;;;;;4999186;28;21035;-80
2023/07/28 08:14:05;;;;;;;2.33;1.30;;;22.20;99.90;;;;;;5015550;28;20173;-81
2023/07/28 08:16:31;;;;;;;2.27;0.90;;;22.30;99.90;;;;;;5033086;28;20642;-82
2023/07/28 08:18:57;;;;;;;2.03;0.97;;;22.50;99.90;;;;;;5014948;28;20198;-82
2023/07/28 08:21:22;;;;;;;1.60;1.03;;;22.60;99.90;;;;;;5015098;28;20728;-82
2023/07/28 08:23:48;;;;;;;1.53;1.00;;;22.70;99.90;;;;;;5014892;28;20177;-82
2023/07/28 08:26:14;;;;;;;2.07;1.00;;;22.90;99.90;;;;;;5033156;28;20173;-82
2023/07/28 08:28:40;;;;;;;1.60;1.10;;;23.00;99.90;;;;;;5032298;28;20193;-81
2023/07/28 08:31:11;;;;;;;1.67;1.17;;;23.10;99.90;;;;;;5014678;28;20200;-81
2023/07/28 08:33:37;;;;;;;1.87;1.13;;;23.20;99.90;;;;;;4982027;28;20234;-80
2023/07/28 08:36:03;;;;;;;2.03;0.90;;;23.30;99.90;;;;;;5039038;28;20675;-80
2023/07/28 08:38:29;;;;;;;3.20;0.80;;;23.40;99.90;;;;;;5023863;28;20240;-80
2023/07/28 08:40:58;;;;;;;2.10;0.80;;;23.50;99.90;;;;;;5042262;28;21249;-80
2023/07/28 08:43:24;;;;;;;1.60;0.90;;;23.70;99.90;;;;;;5000319;28;20784;-80
2023/07/28 08:45:52;;;;;;;1.50;0.90;;;23.80;99.90;;;;;;5033308;28;20581;-80
2023/07/28 08:48:18;;;;;;;2.00;1.07;;;24.00;99.90;;;;;;5013829;28;20643;-80
2023/07/28 08:50:44;;;;;;;1.40;1.00;;;24.20;99.90;;;;;;5013794;28;20634;-81
2023/07/28 08:53:10;;;;;;;1.50;0.97;;;24.50;99.90;;;;;;5013811;28;20173;-81
2023/07/28 08:55:35;;;;;;;2.73;2.20;;;24.70;99.90;;;;;;5013349;28;20984;-80
2023/07/28 08:58:23;;;;;;;1.30;0.73;;;25.10;99.90;;;;;;5013553;28;20205;-80
2023/07/28 09:00:50;;;;;;;1.80;0.80;;;25.50;99.90;;;;;;5013885;28;20281;-80
2023/07/28 09:03:17;;;;;;;1.40;0.60;;;26.20;99.90;;;;;;5032323;28;20579;-80
2023/07/28 09:05:46;;;;;;;3.50;0.60;;;26.90;99.90;;;;;;5031598;28;20653;-79
2023/07/28 09:08:16;;;;;;;1.47;0.60;;;27.50;99.90;;;;;;5014552;28;20628;-79
2023/07/28 09:10:46;;;;;;;2.50;0.97;;;28.10;99.90;;;;;;5019219;28;20608;-80
2023/07/28 09:13:13;;;;;;;1.63;0.70;;;28.40;99.90;;;;;;5014488;28;20589;-81
2023/07/28 09:15:39;;;;;;;1.30;0.60;;;28.70;99.90;;;;;;5034573;28;20574;-80
2023/07/28 09:18:14;;;;;;;1.40;0.60;;;29.00;99.90;;;;;;5034043;28;21026;-81
2023/07/28 09:20:41;;;;;;;1.60;0.70;;;29.20;99.90;;;;;;5034026;28;21039;-81
2023/07/28 09:23:08;;;;;;;2.30;0.60;;;29.70;99.90;;;;;;5015157;28;20592;-81
2023/07/28 09:25:35;;;;;;;1.40;0.53;;;30.00;99.90;;;;;;5032180;28;20572;-81
2023/07/28 09:28:01;;;;;;;1.60;0.60;;;30.20;99.90;;;;;;5031352;28;20596;-80
2023/07/28 09:30:44;;;;;;;2.07;0.50;;;30.20;99.90;;;;;;5031539;28;20615;-80
2023/07/28 09:33:09;;;;;;;1.20;0.50;;;30.10;99.90;;;;;;5036509;28;20580;-79
2023/07/28 09:35:46;;;;;;;1.43;0.60;;;29.90;99.90;;;;;;5017743;28;21101;-80
2023/07/28 09:38:15;;;;;;;1.60;0.60;;;29.60;99.90;;;;;;5039142;28;20309;-79
2023/07/28 09:40:41;;;;;;;1.30;0.70;;;29.30;99.90;;;;;;5020733;28;20969;-79
2023/07/28 09:43:07;;;;;;;1.70;0.70;;;29.00;99.90;;;;;;5035691;28;20577;-79
2023/07/28 09:45:35;;;;;;;1.53;0.60;;;28.70;99.90;;;;;;5015899;28;20588;-79
2023/07/28 09:48:04;;;;;;;1.30;0.50;;;28.40;99.90;;;;;;5036191;28;20177;-79
2023/07/28 09:50:34;;;;;;;1.30;0.50;;;28.20;99.90;;;;;;5031350;28;20628;-80
2023/07/28 09:53:03;;;;;;;1.67;0.50;;;27.90;99.90;;;;;;5012829;28;20628;-80
2023/07/28 09:55:29;;;;;;;2.07;0.50;;;27.60;99.90;;;;;;5031103;28;20589;-80
2023/07/28 09:57:58;;;;;;;1.20;0.50;;;27.40;99.90;;;;;;5030906;28;20616;-80
2023/07/28 10:00:24;;;;;;;1.80;0.50;;;27.30;99.90;;;;;;5015483;28;20641;-79
2023/07/28 10:02:50;;;;;;;2.60;0.53;;;27.30;99.90;;;;;;5038558;28;20653;-80
2023/07/28 10:05:16;;;;;;;1.50;0.60;;;27.40;99.90;;;;;;5020818;28;20614;-79
2023/07/28 10:07:48;;;;;;;4.00;0.67;;;27.50;99.90;;;;;;5020535;28;20697;-79
2023/07/28 10:10:15;;;;;;;2.13;0.90;;;27.70;99.90;;;;;;5037466;28;20626;-79
2023/07/28 10:12:51;;;;;;;2.13;0.60;;;28.00;99.90;;;;;;5016546;28;20588;-79
2023/07/28 10:15:21;;;;;;;1.37;0.63;;;28.00;99.90;;;;;;5017546;28;20616;-79
2023/07/28 10:17:47;;;;;;;1.30;0.53;;;28.10;99.90;;;;;;5017549;28;20598;-79
2023/07/28 10:20:43;;;;;;;1.40;0.60;;;28.00;99.90;;;;;;5016793;28;20701;-79
2023/07/28 10:23:14;;;;;;;1.30;0.60;;;27.90;99.90;;;;;;4979298;28;20593;-79
2023/07/28 10:25:40;;;;;;;1.40;0.50;;;27.80;99.90;;;;;;5014585;28;20692;-81
2023/07/28 10:28:24;;;;;;;1.40;0.60;;;27.70;99.90;;;;;;5031460;28;21178;-79
2023/07/28 10:30:54;;;;;;;1.70;0.67;;;27.60;99.90;;;;;;5031068;28;20613;-79
2023/07/28 10:33:34;;;;;;;1.43;0.50;;;27.50;99.90;;;;;;5031838;28;20597;-80
2023/07/28 10:36:22;;;;;;;1.20;0.47;;;27.50;99.90;;;;;;5013530;28;20593;-79
2023/07/28 10:38:59;;;;;;;1.30;0.40;;;27.50;99.90;;;;;;5012789;28;20743;-80
2023/07/28 10:41:25;;;;;;;1.30;0.53;;;27.60;99.90;;;;;;5012889;28;20622;-80
2023/07/28 10:43:51;;;;;;;1.50;0.50;;;27.60;99.90;;;;;;5013250;28;20595;-80
2023/07/28 10:46:21;;;;;;;2.37;1.30;;;27.60;99.90;;;;;;5030469;28;20203;-80
2023/07/28 10:48:49;;;;;;;1.90;0.97;;;27.60;99.90;;;;;;5029862;28;20576;-80
2023/07/28 10:51:28;;;;;;;1.90;0.80;;;27.50;99.90;;;;;;5029986;28;20569;-81
2023/07/28 10:53:57;;;;;;;1.80;0.77;;;27.50;99.90;;;;;;5012670;28;20666;-79
2023/07/28 10:56:24;;;;;;;2.00;1.10;;;27.60;99.90;;;;;;5029904;28;20639;-79
2023/07/28 10:58:57;;;;;;;1.97;0.80;;;27.70;99.90;;;;;;5011594;28;20749;-79
2023/07/28 11:01:34;;;;;;;1.30;0.50;;;27.90;99.90;;;;;;5030049;28;20581;-79
2023/07/28 11:04:26;;;;;;;1.93;0.50;;;28.00;99.90;;;;;;5030385;28;20584;-79
2023/07/28 11:06:52;;;;;;;3.53;0.60;;;28.20;99.90;;;;;;5026375;28;20634;-79
2023/07/28 11:09:19;;;;;;;1.30;0.53;;;28.40;99.90;;;;;;5031843;28;20682;-79
2023/07/28 11:11:46;;;;;;;1.40;0.60;;;28.40;99.90;;;;;;5013784;28;20170;-80
2023/07/28 11:14:12;;;;;;;1.40;0.60;;;28.40;99.90;;;;;;5016004;28;20630;-80
2023/07/28 11:16:41;;;;;;;1.50;0.57;;;28.40;99.90;;;;;;5034493;28;21117;-80
2023/07/28 11:19:13;;;;;;;1.73;0.70;;;28.40;99.90;;;;;;5034816;28;20645;-80
2023/07/28 11:21:40;;;;;;;1.50;0.70;;;28.50;99.90;;;;;;5033315;28;20595;-81
2023/07/28 11:24:09;;;;;;;1.67;0.87;;;28.60;99.90;;;;;;5033336;28;20580;-81
2023/07/28 11:26:39;;;;;;;3.20;1.90;;;28.70;99.90;;;;;;5014203;28;20612;-81
2023/07/28 11:29:05;;;;;;;1.80;0.90;;;28.80;99.90;;;;;;5014326;28;20655;-81
2023/07/28 11:31:38;;;;;;;1.50;0.90;;;28.80;99.90;;;;;;5017511;28;20596;-81
2023/07/28 11:34:16;;;;;;;1.70;0.83;;;28.90;99.90;;;;;;5017112;28;20692;-81
2023/07/28 11:36:42;;;;;;;1.30;0.70;;;28.90;99.90;;;;;;5022313;28;20589;-80
2023/07/28 11:39:10;;;;;;;2.30;2.03;;;28.80;99.90;;;;;;5016778;28;20657;-81
2023/07/28 11:41:36;;;;;;;2.27;1.67;;;28.80;99.90;;;;;;5034790;28;20587;-80
2023/07/28 11:44:02;;;;;;;2.03;1.17;;;28.80;99.90;;;;;;5029585;23;20673;-77
2023/07/28 11:46:47;;;;;;;2.00;1.10;;;28.80;99.90;;;;;;5011750;28;21194;-78
2023/07/28 11:49:18;;;;;;;2.57;1.43;;;28.60;99.90;;;;;;5032402;28;20599;-78
2023/07/28 11:51:47;;;;;;;1.50;0.90;;;28.50;99.90;;;;;;5014948;28;20602;-78
2023/07/28 11:54:14;;;;;;;1.30;0.60;;;28.50;99.90;;;;;;5023567;28;20609;-78
2023/07/28 11:56:44;;;;;;;1.30;0.60;;;28.40;99.90;;;;;;5011507;28;20600;-79
2023/07/28 11:59:11;;;;;;;1.57;0.63;;;28.50;99.90;;;;;;5011674;28;20969;-79
2023/07/28 12:01:55;;;;;;;1.30;0.70;;;28.60;99.90;;;;;;5012701;28;21112;-78
2023/07/28 12:04:25;;;;;;;1.43;0.60;;;28.80;99.90;;;;;;5012671;28;20613;-79
2023/07/28 12:07:14;;;;;;;1.27;0.53;;;29.10;99.90;;;;;;5015428;28;20592;-79
2023/07/28 12:09:46;;;;;;;1.30;0.60;;;29.40;99.90;;;;;;5010817;28;20696;-79
2023/07/28 12:12:18;;;;;;;1.40;0.70;;;29.70;99.90;;;;;;5011193;28;20609;-79
2023/07/28 12:14:46;;;;;;;1.40;0.60;;;30.00;99.90;;;;;;5012389;28;20647;-79
2023/07/28 12:17:13;;;;;;;1.40;0.60;;;30.30;99.90;;;;;;5011403;28;20599;-79
2023/07/28 12:19:54;;;;;;;1.60;0.60;;;30.50;99.90;;;;;;5010636;28;21241;-79
2023/07/28 12:22:20;;;;;;;6.60;0.80;;;30.60;99.90;;;;;;5011071;28;20591;-78
2023/07/28 12:24:46;;;;;;;2.07;1.37;;;30.70;99.90;;;;;;5010751;28;21313;-79
2023/07/28 12:27:13;;;;;;;2.07;1.57;;;30.80;99.90;;;;;;5012185;28;20683;-78
2023/07/28 12:29:39;;;;;;;1.90;1.23;;;30.70;99.90;;;;;;5010145;28;20178;-78
2023/07/28 12:32:05;;;;;;;1.70;0.80;;;30.60;99.90;;;;;;4994343;28;20604;-78
2023/07/28 12:34:30;;;;;;;1.30;0.60;;;30.40;99.90;;;;;;5011766;28;20616;-78
2023/07/28 12:36:56;;;;;;;1.40;0.70;;;30.30;99.90;;;;;;4977845;28;20582;-78
2023/07/28 12:39:23;;;;;;;1.60;0.70;;;30.10;99.90;;;;;;4993973;28;20293;-78
2023/07/28 12:41:49;;;;;;;1.40;0.60;;;29.80;99.90;;;;;;5009245;28;20174;-78
2023/07/28 12:44:19;;;;;;;2.10;1.20;;;29.70;99.90;;;;;;5014674;28;20632;-78
2023/07/28 12:46:44;;;;;;;2.13;1.80;;;29.40;99.90;;;;;;5010581;28;20590;-78
2023/07/28 12:49:10;;;;;;;2.47;1.50;;;29.30;99.90;;;;;;5010339;28;20603;-78
2023/07/28 12:51:36;;;;;;;1.47;0.70;;;29.10;99.90;;;;;;5010174;28;20182;-78
2023/07/28 12:54:01;;;;;;;1.30;0.60;;;29.00;99.90;;;;;;5010713;28;20288;-78
2023/07/28 12:56:27;;;;;;;1.50;0.70;;;28.90;99.90;;;;;;4994165;28;20194;-78
2023/07/28 12:58:53;;;;;;;1.70;0.87;;;28.70;99.90;;;;;;5011627;28;20202;-79
2023/07/28 13:01:19;;;;;;;1.67;0.70;;;28.60;99.90;;;;;;5009951;28;20776;-78